sensor_id;sensor_type;location;lat;lon;timestamp;pressure;altitude;pressure_sealevel;temperature;humidity
34065;BME280;20339;49.754;20.158;2024-02-28T00:01:28;96569.35;;;9.38;75.47
34065;BME280;20339;49.754;20.158;2024-02-28T00:04:03;96573.84;;;9.26;75.43
34065;BME280;20339;49.754;20.158;2024-02-28T00:06:35;96577.73;;;9.18;75.81
34065;BME280;20339;49.754;20.158;2024-02-28T00:09:07;96574.20;;;9.18;76.14
34065;BME280;20339;49.754;20.158;2024-02-28T00:11:46;96572.70;;;9.20;76.41
34065;BME280;20339;49.754;20.158;2024-02-28T00:14:20;96580.61;;;9.24;76.57
34065;BME280;20339;49.754;20.158;2024-02-28T00:16:57;96577.85;;;9.29;76.80
34065;BME280;20339;49.754;20.158;2024-02-28T00:19:33;96577.38;;;9.32;76.57
34065;BME280;20339;49.754;20.158;2024-02-28T00:22:07;96574.79;;;9.29;76.75
34065;BME280;20339;49.754;20.158;2024-02-28T00:24:42;96573.09;;;9.31;76.94
34065;BME280;20339;49.754;20.158;2024-02-28T00:27:16;96573.23;;;9.34;77.04
34065;BME280;20339;49.754;20.158;2024-02-28T00:29:47;96571.22;;;9.35;76.97
34065;BME280;20339;49.754;20.158;2024-02-28T00:32:24;96570.43;;;9.34;76.96
34065;BME280;20339;49.754;20.158;2024-02-28T00:34:56;96572.73;;;9.26;77.12
34065;BME280;20339;49.754;20.158;2024-02-28T00:37:27;96574.91;;;9.22;77.45
34065;BME280;20339;49.754;20.158;2024-02-28T00:40:00;96576.14;;;9.20;77.64
34065;BME280;20339;49.754;20.158;2024-02-28T00:42:34;96582.12;;;9.20;77.97
34065;BME280;20339;49.754;20.158;2024-02-28T00:45:12;96584.61;;;9.20;78.15
34065;BME280;20339;49.754;20.158;2024-02-28T00:47:46;96576.83;;;9.21;78.07
34065;BME280;20339;49.754;20.158;2024-02-28T00:50:20;96566.83;;;9.21;78.34
34065;BME280;20339;49.754;20.158;2024-02-28T00:53:00;96569.28;;;9.28;78.72
34065;BME280;20339;49.754;20.158;2024-02-28T00:55:36;96572.60;;;9.35;78.76
34065;BME280;20339;49.754;20.158;2024-02-28T00:58:10;96571.86;;;9.35;78.71
34065;BME280;20339;49.754;20.158;2024-02-28T01:00:45;96573.67;;;9.29;78.68
34065;BME280;20339;49.754;20.158;2024-02-28T01:03:21;96574.42;;;9.25;78.88
34065;BME280;20339;49.754;20.158;2024-02-28T01:05:55;96578.71;;;9.29;78.91
34065;BME280;20339;49.754;20.158;2024-02-28T01:08:33;96579.80;;;9.32;78.95
34065;BME280;20339;49.754;20.158;2024-02-28T01:11:07;96579.06;;;9.33;79.02
34065;BME280;20339;49.754;20.158;2024-02-28T01:13:41;96580.71;;;9.31;79.24
34065;BME280;20339;49.754;20.158;2024-02-28T01:16:12;96586.23;;;9.30;79.35
34065;BME280;20339;49.754;20.158;2024-02-28T01:18:43;96590.23;;;9.32;79.52
34065;BME280;20339;49.754;20.158;2024-02-28T01:21:17;96586.84;;;9.33;79.67
34065;BME280;20339;49.754;20.158;2024-02-28T01:23:53;96585.37;;;9.31;79.59
34065;BME280;20339;49.754;20.158;2024-02-28T01:26:27;96587.52;;;9.33;79.77
34065;BME280;20339;49.754;20.158;2024-02-28T01:28:59;96588.77;;;9.36;79.86
34065;BME280;20339;49.754;20.158;2024-02-28T01:31:30;96585.62;;;9.35;79.86
34065;BME280;20339;49.754;20.158;2024-02-28T01:34:06;96588.19;;;9.37;79.75
34065;BME280;20339;49.754;20.158;2024-02-28T01:36:40;96589.04;;;9.22;79.37
34065;BME280;20339;49.754;20.158;2024-02-28T01:39:12;96583.33;;;9.06;79.82
34065;BME280;20339;49.754;20.158;2024-02-28T01:41:52;96587.72;;;9.04;80.34
34065;BME280;20339;49.754;20.158;2024-02-28T01:44:26;96591.08;;;9.12;80.53
34065;BME280;20339;49.754;20.158;2024-02-28T01:46:58;96594.73;;;9.12;80.49
34065;BME280;20339;49.754;20.158;2024-02-28T01:49:29;96591.41;;;9.07;80.73
34065;BME280;20339;49.754;20.158;2024-02-28T01:52:03;96589.64;;;9.16;80.98
34065;BME280;20339;49.754;20.158;2024-02-28T01:54:36;96588.55;;;9.25;80.91
34065;BME280;20339;49.754;20.158;2024-02-28T01:57:08;96584.59;;;9.22;80.87
34065;BME280;20339;49.754;20.158;2024-02-28T01:59:39;96578.02;;;9.26;80.90
34065;BME280;20339;49.754;20.158;2024-02-28T02:02:11;96579.21;;;9.33;80.97
34065;BME280;20339;49.754;20.158;2024-02-28T02:04:44;96583.31;;;9.27;80.97
34065;BME280;20339;49.754;20.158;2024-02-28T02:07:16;96586.52;;;9.14;80.96
34065;BME280;20339;49.754;20.158;2024-02-28T02:09:51;96584.80;;;9.07;81.50
34065;BME280;20339;49.754;20.158;2024-02-28T02:12:28;96585.37;;;9.09;81.67
34065;BME280;20339;49.754;20.158;2024-02-28T02:15:09;96588.74;;;9.14;81.62
34065;BME280;20339;49.754;20.158;2024-02-28T02:17:40;96589.27;;;9.15;81.41
34065;BME280;20339;49.754;20.158;2024-02-28T02:20:15;96591.30;;;9.16;81.38
34065;BME280;20339;49.754;20.158;2024-02-28T02:22:49;96590.45;;;9.15;81.53
34065;BME280;20339;49.754;20.158;2024-02-28T02:25:24;96588.48;;;9.17;81.74
34065;BME280;20339;49.754;20.158;2024-02-28T02:27:58;96589.90;;;9.18;81.87
34065;BME280;20339;49.754;20.158;2024-02-28T02:30:31;96581.70;;;9.18;81.84
34065;BME280;20339;49.754;20.158;2024-02-28T02:33:02;96579.70;;;9.19;81.85
34065;BME280;20339;49.754;20.158;2024-02-28T02:35:38;96582.10;;;9.23;81.99
34065;BME280;20339;49.754;20.158;2024-02-28T02:38:11;96579.82;;;9.25;81.98
34065;BME280;20339;49.754;20.158;2024-02-28T02:40:43;96574.63;;;9.26;81.98
34065;BME280;20339;49.754;20.158;2024-02-28T02:43:16;96574.25;;;9.27;81.83
34065;BME280;20339;49.754;20.158;2024-02-28T02:45:47;96574.30;;;9.33;81.91
34065;BME280;20339;49.754;20.158;2024-02-28T02:48:18;96580.73;;;9.36;82.00
34065;BME280;20339;49.754;20.158;2024-02-28T02:50:49;96576.91;;;9.39;82.00
34065;BME280;20339;49.754;20.158;2024-02-28T02:53:21;96576.02;;;9.37;81.85
34065;BME280;20339;49.754;20.158;2024-02-28T02:55:56;96581.89;;;9.36;81.71
34065;BME280;20339;49.754;20.158;2024-02-28T02:58:29;96582.38;;;9.36;81.60
34065;BME280;20339;49.754;20.158;2024-02-28T03:01:00;96581.88;;;9.39;81.49
34065;BME280;20339;49.754;20.158;2024-02-28T03:03:34;96584.48;;;9.39;81.41
34065;BME280;20339;49.754;20.158;2024-02-28T03:06:10;96588.85;;;9.41;81.23
34065;BME280;20339;49.754;20.158;2024-02-28T03:08:46;96584.57;;;9.40;81.12
34065;BME280;20339;49.754;20.158;2024-02-28T03:11:20;96589.84;;;9.36;81.11
34065;BME280;20339;49.754;20.158;2024-02-28T03:13:54;96590.49;;;9.32;81.12
34065;BME280;20339;49.754;20.158;2024-02-28T03:16:25;96589.38;;;9.35;81.06
34065;BME280;20339;49.754;20.158;2024-02-28T03:18:59;96586.43;;;9.39;81.03
34065;BME280;20339;49.754;20.158;2024-02-28T03:21:33;96586.48;;;9.41;80.93
34065;BME280;20339;49.754;20.158;2024-02-28T03:24:07;96583.73;;;9.41;80.78
34065;BME280;20339;49.754;20.158;2024-02-28T03:26:45;96586.80;;;9.45;80.67
34065;BME280;20339;49.754;20.158;2024-02-28T03:29:19;96583.79;;;9.55;80.50
34065;BME280;20339;49.754;20.158;2024-02-28T03:31:50;96590.45;;;9.65;80.28
34065;BME280;20339;49.754;20.158;2024-02-28T03:34:24;96587.36;;;9.69;80.01
34065;BME280;20339;49.754;20.158;2024-02-28T03:36:58;96588.84;;;9.70;79.79
34065;BME280;20339;49.754;20.158;2024-02-28T03:39:29;96592.23;;;9.73;79.54
34065;BME280;20339;49.754;20.158;2024-02-28T03:42:00;96590.32;;;9.73;79.41
34065;BME280;20339;49.754;20.158;2024-02-28T03:44:32;96592.17;;;9.70;79.18
34065;BME280;20339;49.754;20.158;2024-02-28T03:47:03;96593.36;;;9.66;79.00
34065;BME280;20339;49.754;20.158;2024-02-28T03:49:40;96591.77;;;9.58;78.94
34065;BME280;20339;49.754;20.158;2024-02-28T03:52:11;96595.73;;;9.47;79.08
34065;BME280;20339;49.754;20.158;2024-02-28T03:54:45;96589.60;;;9.41;79.12
34065;BME280;20339;49.754;20.158;2024-02-28T03:57:21;96588.64;;;9.41;79.25
34065;BME280;20339;49.754;20.158;2024-02-28T03:59:52;96590.66;;;9.39;79.35
34065;BME280;20339;49.754;20.158;2024-02-28T04:02:26;96591.83;;;9.39;79.38
34065;BME280;20339;49.754;20.158;2024-02-28T04:05:05;96588.39;;;9.40;79.21
34065;BME280;20339;49.754;20.158;2024-02-28T04:07:40;96594.73;;;9.30;79.12
34065;BME280;20339;49.754;20.158;2024-02-28T04:10:18;96596.20;;;9.14;79.31
34065;BME280;20339;49.754;20.158;2024-02-28T04:12:52;96598.14;;;9.05;79.61
34065;BME280;20339;49.754;20.158;2024-02-28T04:15:26;96599.42;;;9.02;79.88
34065;BME280;20339;49.754;20.158;2024-02-28T04:17:57;96598.41;;;9.03;80.04
34065;BME280;20339;49.754;20.158;2024-02-28T04:20:29;96597.77;;;9.07;80.04
34065;BME280;20339;49.754;20.158;2024-02-28T04:23:00;96602.01;;;9.03;79.84
34065;BME280;20339;49.754;20.158;2024-02-28T04:25:34;96608.92;;;9.01;79.97
34065;BME280;20339;49.754;20.158;2024-02-28T04:28:08;96611.58;;;9.04;80.05
34065;BME280;20339;49.754;20.158;2024-02-28T04:30:39;96612.42;;;9.04;79.99
34065;BME280;20339;49.754;20.158;2024-02-28T04:33:12;96615.07;;;9.03;79.93
34065;BME280;20339;49.754;20.158;2024-02-28T04:35:49;96616.08;;;9.02;80.13
34065;BME280;20339;49.754;20.158;2024-02-28T04:38:21;96617.91;;;9.01;80.08
34065;BME280;20339;49.754;20.158;2024-02-28T04:40:57;96616.80;;;8.99;80.34
34065;BME280;20339;49.754;20.158;2024-02-28T04:43:31;96616.82;;;8.95;80.32
34065;BME280;20339;49.754;20.158;2024-02-28T04:46:05;96615.61;;;8.88;80.29
34065;BME280;20339;49.754;20.158;2024-02-28T04:48:38;96612.87;;;8.82;80.32
34065;BME280;20339;49.754;20.158;2024-02-28T04:51:09;96609.34;;;8.76;80.43
34065;BME280;20339;49.754;20.158;2024-02-28T04:53:42;96614.31;;;8.68;80.38
34065;BME280;20339;49.754;20.158;2024-02-28T04:56:15;96613.95;;;8.59;80.55
34065;BME280;20339;49.754;20.158;2024-02-28T04:58:46;96612.52;;;8.54;80.39
34065;BME280;20339;49.754;20.158;2024-02-28T05:01:18;96610.25;;;8.53;80.43
34065;BME280;20339;49.754;20.158;2024-02-28T05:03:49;96613.04;;;8.58;80.44
34065;BME280;20339;49.754;20.158;2024-02-28T05:06:22;96615.80;;;8.65;80.63
34065;BME280;20339;49.754;20.158;2024-02-28T05:08:54;96620.23;;;8.70;80.53
34065;BME280;20339;49.754;20.158;2024-02-28T05:11:25;96624.40;;;8.68;80.43
34065;BME280;20339;49.754;20.158;2024-02-28T05:13:59;96623.72;;;8.67;80.21
34065;BME280;20339;49.754;20.158;2024-02-28T05:16:31;96625.90;;;8.61;80.32
34065;BME280;20339;49.754;20.158;2024-02-28T05:19:02;96632.02;;;8.63;80.41
34065;BME280;20339;49.754;20.158;2024-02-28T05:21:42;96634.55;;;8.59;80.39
34065;BME280;20339;49.754;20.158;2024-02-28T05:24:16;96632.44;;;8.54;80.22
34065;BME280;20339;49.754;20.158;2024-02-28T05:26:49;96632.80;;;8.43;80.08
34065;BME280;20339;49.754;20.158;2024-02-28T05:29:21;96636.02;;;8.34;80.07
34065;BME280;20339;49.754;20.158;2024-02-28T05:31:54;96636.48;;;8.33;80.24
34065;BME280;20339;49.754;20.158;2024-02-28T05:34:31;96642.25;;;8.35;80.56
34065;BME280;20339;49.754;20.158;2024-02-28T05:37:03;96644.09;;;8.32;80.29
34065;BME280;20339;49.754;20.158;2024-02-28T05:39:34;96647.86;;;8.26;80.45
34065;BME280;20339;49.754;20.158;2024-02-28T05:42:08;96652.89;;;8.25;80.82
34065;BME280;20339;49.754;20.158;2024-02-28T05:44:43;96652.62;;;8.29;81.20
34065;BME280;20339;49.754;20.158;2024-02-28T05:47:17;96655.04;;;8.34;81.05
34065;BME280;20339;49.754;20.158;2024-02-28T05:49:54;96661.70;;;8.38;81.12
34065;BME280;20339;49.754;20.158;2024-02-28T05:52:28;96662.36;;;8.45;81.05
34065;BME280;20339;49.754;20.158;2024-02-28T05:55:01;96667.64;;;8.49;81.08
34065;BME280;20339;49.754;20.158;2024-02-28T05:57:33;96672.30;;;8.59;81.13
34065;BME280;20339;49.754;20.158;2024-02-28T06:00:05;96674.98;;;8.68;80.78
34065;BME280;20339;49.754;20.158;2024-02-28T06:02:41;96677.34;;;8.74;80.65
34065;BME280;20339;49.754;20.158;2024-02-28T06:05:15;96675.05;;;8.79;80.64
34065;BME280;20339;49.754;20.158;2024-02-28T06:07:48;96673.73;;;8.87;80.47
34065;BME280;20339;49.754;20.158;2024-02-28T06:10:27;96676.15;;;9.00;80.44
34065;BME280;20339;49.754;20.158;2024-02-28T06:12:58;96676.82;;;9.14;80.31
34065;BME280;20339;49.754;20.158;2024-02-28T06:15:32;96678.33;;;9.26;80.18
34065;BME280;20339;49.754;20.158;2024-02-28T06:18:06;96679.77;;;9.30;79.88
34065;BME280;20339;49.754;20.158;2024-02-28T06:20:37;96685.52;;;9.31;79.68
34065;BME280;20339;49.754;20.158;2024-02-28T06:23:08;96686.52;;;9.33;79.54
34065;BME280;20339;49.754;20.158;2024-02-28T06:25:39;96687.91;;;9.33;79.44
34065;BME280;20339;49.754;20.158;2024-02-28T06:28:11;96687.11;;;9.33;79.39
34065;BME280;20339;49.754;20.158;2024-02-28T06:30:45;96691.30;;;9.32;79.36
34065;BME280;20339;49.754;20.158;2024-02-28T06:33:16;96697.28;;;9.31;79.43
34065;BME280;20339;49.754;20.158;2024-02-28T06:35:48;96699.17;;;9.29;79.35
34065;BME280;20339;49.754;20.158;2024-02-28T06:38:22;96700.27;;;9.26;79.45
34065;BME280;20339;49.754;20.158;2024-02-28T06:40:54;96703.19;;;9.27;79.48
34065;BME280;20339;49.754;20.158;2024-02-28T06:43:28;96703.23;;;9.27;79.51
34065;BME280;20339;49.754;20.158;2024-02-28T06:45:59;96705.42;;;9.24;79.48
34065;BME280;20339;49.754;20.158;2024-02-28T06:48:35;96702.20;;;9.22;79.51
34065;BME280;20339;49.754;20.158;2024-02-28T06:51:06;96703.09;;;9.26;79.69
34065;BME280;20339;49.754;20.158;2024-02-28T06:53:42;96707.48;;;9.29;79.63
34065;BME280;20339;49.754;20.158;2024-02-28T06:56:16;96710.54;;;9.35;79.59
34065;BME280;20339;49.754;20.158;2024-02-28T06:58:55;96710.10;;;9.41;79.42
34065;BME280;20339;49.754;20.158;2024-02-28T07:01:28;96714.54;;;9.49;79.36
34065;BME280;20339;49.754;20.158;2024-02-28T07:04:06;96715.20;;;9.54;79.29
34065;BME280;20339;49.754;20.158;2024-02-28T07:06:40;96715.45;;;9.56;79.16
34065;BME280;20339;49.754;20.158;2024-02-28T07:09:18;96715.95;;;9.59;79.09
34065;BME280;20339;49.754;20.158;2024-02-28T07:12:00;96715.93;;;9.63;78.98
34065;BME280;20339;49.754;20.158;2024-02-28T07:14:35;96717.83;;;9.67;78.92
34065;BME280;20339;49.754;20.158;2024-02-28T07:17:11;96717.65;;;9.70;78.97
34065;BME280;20339;49.754;20.158;2024-02-28T07:19:46;96714.59;;;9.74;78.80
34065;BME280;20339;49.754;20.158;2024-02-28T07:22:20;96715.77;;;9.79;78.69
34065;BME280;20339;49.754;20.158;2024-02-28T07:24:57;96712.73;;;9.82;78.63
34065;BME280;20339;49.754;20.158;2024-02-28T07:27:28;96710.23;;;9.84;78.48
34065;BME280;20339;49.754;20.158;2024-02-28T07:30:00;96716.16;;;9.90;78.41
34065;BME280;20339;49.754;20.158;2024-02-28T07:32:33;96720.87;;;9.91;78.25
34065;BME280;20339;49.754;20.158;2024-02-28T07:35:05;96724.13;;;9.87;78.11
34065;BME280;20339;49.754;20.158;2024-02-28T07:37:37;96722.46;;;9.85;78.13
34065;BME280;20339;49.754;20.158;2024-02-28T07:40:15;96722.17;;;9.87;78.21
34065;BME280;20339;49.754;20.158;2024-02-28T07:42:51;96720.87;;;9.91;78.31
34065;BME280;20339;49.754;20.158;2024-02-28T07:45:29;96718.67;;;9.94;78.12
34065;BME280;20339;49.754;20.158;2024-02-28T07:48:01;96724.48;;;10.00;78.14
34065;BME280;20339;49.754;20.158;2024-02-28T07:50:35;96725.58;;;10.06;78.00
34065;BME280;20339;49.754;20.158;2024-02-28T07:53:17;96724.06;;;10.13;78.08
34065;BME280;20339;49.754;20.158;2024-02-28T07:55:48;96724.05;;;10.17;77.86
34065;BME280;20339;49.754;20.158;2024-02-28T07:58:20;96725.00;;;10.21;77.71
34065;BME280;20339;49.754;20.158;2024-02-28T08:00:54;96723.73;;;10.23;77.62
34065;BME280;20339;49.754;20.158;2024-02-28T08:03:30;96732.08;;;10.27;77.54
34065;BME280;20339;49.754;20.158;2024-02-28T08:06:05;96731.13;;;10.30;77.56
34065;BME280;20339;49.754;20.158;2024-02-28T08:08:38;96734.67;;;10.37;77.61
34065;BME280;20339;49.754;20.158;2024-02-28T08:11:09;96734.17;;;10.40;77.39
34065;BME280;20339;49.754;20.158;2024-02-28T08:13:40;96734.97;;;10.43;77.27
34065;BME280;20339;49.754;20.158;2024-02-28T08:16:13;96735.10;;;10.47;77.05
34065;BME280;20339;49.754;20.158;2024-02-28T08:18:49;96737.61;;;10.51;76.86
34065;BME280;20339;49.754;20.158;2024-02-28T08:21:25;96734.05;;;10.56;76.71
34065;BME280;20339;49.754;20.158;2024-02-28T08:24:00;96732.95;;;10.61;76.54
34065;BME280;20339;49.754;20.158;2024-02-28T08:26:37;96731.64;;;10.66;76.31
34065;BME280;20339;49.754;20.158;2024-02-28T08:29:14;96733.85;;;10.71;76.05
34065;BME280;20339;49.754;20.158;2024-02-28T08:31:53;96738.46;;;10.78;75.87
34065;BME280;20339;49.754;20.158;2024-02-28T08:34:29;96739.01;;;10.81;75.78
34065;BME280;20339;49.754;20.158;2024-02-28T08:37:03;96743.55;;;10.87;75.70
34065;BME280;20339;49.754;20.158;2024-02-28T08:39:37;96743.02;;;10.92;75.70
34065;BME280;20339;49.754;20.158;2024-02-28T08:42:10;96736.35;;;10.98;75.78
34065;BME280;20339;49.754;20.158;2024-02-28T08:44:42;96733.10;;;11.01;75.49
34065;BME280;20339;49.754;20.158;2024-02-28T08:47:17;96734.13;;;11.05;75.51
34065;BME280;20339;49.754;20.158;2024-02-28T08:49:55;96735.91;;;11.05;75.56
34065;BME280;20339;49.754;20.158;2024-02-28T08:52:27;96738.59;;;11.03;75.49
34065;BME280;20339;49.754;20.158;2024-02-28T08:55:00;96735.24;;;10.99;75.43
34065;BME280;20339;49.754;20.158;2024-02-28T08:57:36;96736.60;;;10.93;75.26
34065;BME280;20339;49.754;20.158;2024-02-28T09:00:15;96737.30;;;10.83;75.29
34065;BME280;20339;49.754;20.158;2024-02-28T09:02:47;96740.47;;;10.79;75.40
34065;BME280;20339;49.754;20.158;2024-02-28T09:05:19;96743.02;;;10.72;75.51
34065;BME280;20339;49.754;20.158;2024-02-28T09:07:50;96742.94;;;10.65;75.50
34065;BME280;20339;49.754;20.158;2024-02-28T09:10:25;96744.52;;;10.62;75.63
34065;BME280;20339;49.754;20.158;2024-02-28T09:12:59;96739.61;;;10.59;75.75
34065;BME280;20339;49.754;20.158;2024-02-28T09:15:32;96744.15;;;10.60;76.00
34065;BME280;20339;49.754;20.158;2024-02-28T09:18:07;96742.82;;;10.60;76.17
34065;BME280;20339;49.754;20.158;2024-02-28T09:20:39;96741.92;;;10.59;76.29
34065;BME280;20339;49.754;20.158;2024-02-28T09:23:15;96746.09;;;10.62;76.29
34065;BME280;20339;49.754;20.158;2024-02-28T09:25:47;96746.64;;;10.67;76.20
34065;BME280;20339;49.754;20.158;2024-02-28T09:28:19;96747.82;;;10.75;76.27
34065;BME280;20339;49.754;20.158;2024-02-28T09:30:57;96752.13;;;10.80;76.28
34065;BME280;20339;49.754;20.158;2024-02-28T09:33:28;96755.45;;;10.85;76.17
34065;BME280;20339;49.754;20.158;2024-02-28T09:36:07;96750.42;;;10.91;76.17
34065;BME280;20339;49.754;20.158;2024-02-28T09:38:44;96748.06;;;11.01;76.02
34065;BME280;20339;49.754;20.158;2024-02-28T09:41:18;96747.34;;;11.11;75.85
34065;BME280;20339;49.754;20.158;2024-02-28T09:43:50;96748.20;;;11.21;75.78
34065;BME280;20339;49.754;20.158;2024-02-28T09:46:21;96749.91;;;11.26;75.65
34065;BME280;20339;49.754;20.158;2024-02-28T09:48:54;96750.63;;;11.23;75.49
34065;BME280;20339;49.754;20.158;2024-02-28T09:51:31;96754.04;;;11.16;75.33
34065;BME280;20339;49.754;20.158;2024-02-28T09:54:07;96751.90;;;11.13;75.40
34065;BME280;20339;49.754;20.158;2024-02-28T09:56:40;96757.54;;;11.18;75.52
34065;BME280;20339;49.754;20.158;2024-02-28T09:59:13;96762.07;;;11.25;75.40
34065;BME280;20339;49.754;20.158;2024-02-28T10:01:52;96760.29;;;11.31;75.37
34065;BME280;20339;49.754;20.158;2024-02-28T10:04:31;96763.98;;;11.39;75.11
34065;BME280;20339;49.754;20.158;2024-02-28T10:07:14;96768.11;;;11.39;74.80
34065;BME280;20339;49.754;20.158;2024-02-28T10:09:47;96767.74;;;11.41;74.58
34065;BME280;20339;49.754;20.158;2024-02-28T10:12:23;96763.92;;;11.41;74.34
34065;BME280;20339;49.754;20.158;2024-02-28T10:14:57;96765.45;;;11.40;74.40
34065;BME280;20339;49.754;20.158;2024-02-28T10:17:35;96766.55;;;11.44;74.36
34065;BME280;20339;49.754;20.158;2024-02-28T10:20:15;96773.33;;;11.46;74.27
34065;BME280;20339;49.754;20.158;2024-02-28T10:22:51;96772.85;;;11.45;74.24
34065;BME280;20339;49.754;20.158;2024-02-28T10:25:24;96777.90;;;11.49;74.37
34065;BME280;20339;49.754;20.158;2024-02-28T10:28:04;96776.96;;;11.53;74.50
34065;BME280;20339;49.754;20.158;2024-02-28T10:30:43;96775.42;;;11.52;74.50
34065;BME280;20339;49.754;20.158;2024-02-28T10:33:15;96776.59;;;11.54;74.78
34065;BME280;20339;49.754;20.158;2024-02-28T10:35:51;96776.27;;;11.54;74.69
34065;BME280;20339;49.754;20.158;2024-02-28T10:38:24;96778.67;;;11.51;74.64
34065;BME280;20339;49.754;20.158;2024-02-28T10:41:00;96776.68;;;11.49;74.59
34065;BME280;20339;49.754;20.158;2024-02-28T10:43:36;96774.85;;;11.52;74.61
34065;BME280;20339;49.754;20.158;2024-02-28T10:46:18;96770.77;;;11.57;74.64
34065;BME280;20339;49.754;20.158;2024-02-28T10:48:55;96775.20;;;11.60;74.36
34065;BME280;20339;49.754;20.158;2024-02-28T10:51:27;96778.79;;;11.63;74.23
34065;BME280;20339;49.754;20.158;2024-02-28T10:54:12;96777.77;;;11.59;74.00
34065;BME280;20339;49.754;20.158;2024-02-28T10:56:44;96778.11;;;11.62;74.08
34065;BME280;20339;49.754;20.158;2024-02-28T10:59:26;96776.38;;;11.65;73.74
34065;BME280;20339;49.754;20.158;2024-02-28T11:01:58;96778.09;;;11.63;73.59
34065;BME280;20339;49.754;20.158;2024-02-28T11:04:34;96779.27;;;11.63;73.50
34065;BME280;20339;49.754;20.158;2024-02-28T11:07:10;96779.84;;;11.64;73.34
34065;BME280;20339;49.754;20.158;2024-02-28T11:09:53;96777.94;;;11.63;73.10
34065;BME280;20339;49.754;20.158;2024-02-28T11:12:28;96782.66;;;11.58;73.06
34065;BME280;20339;49.754;20.158;2024-02-28T11:15:02;96780.33;;;11.57;73.35
34065;BME280;20339;49.754;20.158;2024-02-28T11:17:36;96779.08;;;11.60;73.20
34065;BME280;20339;49.754;20.158;2024-02-28T11:20:20;96780.84;;;11.64;73.08
34065;BME280;20339;49.754;20.158;2024-02-28T11:23:01;96780.98;;;11.72;73.10
34065;BME280;20339;49.754;20.158;2024-02-28T11:25:32;96779.23;;;11.80;72.97
34065;BME280;20339;49.754;20.158;2024-02-28T11:28:05;96775.59;;;11.84;72.84
34065;BME280;20339;49.754;20.158;2024-02-28T11:30:47;96777.63;;;11.92;72.81
34065;BME280;20339;49.754;20.158;2024-02-28T11:33:20;96778.48;;;11.96;72.73
34065;BME280;20339;49.754;20.158;2024-02-28T11:35:57;96779.98;;;11.97;72.48
34065;BME280;20339;49.754;20.158;2024-02-28T11:38:28;96780.69;;;11.99;72.36
34065;BME280;20339;49.754;20.158;2024-02-28T11:41:02;96778.80;;;12.02;72.32
34065;BME280;20339;49.754;20.158;2024-02-28T11:43:34;96780.77;;;12.04;72.20
34065;BME280;20339;49.754;20.158;2024-02-28T11:46:11;96778.40;;;12.08;72.06
34065;BME280;20339;49.754;20.158;2024-02-28T11:48:44;96776.45;;;12.12;72.12
34065;BME280;20339;49.754;20.158;2024-02-28T11:51:19;96777.63;;;12.16;72.05
34065;BME280;20339;49.754;20.158;2024-02-28T11:53:52;96779.08;;;12.23;72.15
34065;BME280;20339;49.754;20.158;2024-02-28T11:56:24;96780.94;;;12.32;72.18
34065;BME280;20339;49.754;20.158;2024-02-28T11:58:58;96783.73;;;12.43;72.06
34065;BME280;20339;49.754;20.158;2024-02-28T12:01:40;96781.21;;;12.45;71.65
34065;BME280;20339;49.754;20.158;2024-02-28T12:04:13;96778.89;;;12.47;71.39
34065;BME280;20339;49.754;20.158;2024-02-28T12:06:52;96781.17;;;12.52;71.34
34065;BME280;20339;49.754;20.158;2024-02-28T12:09:25;96780.32;;;12.60;71.39
34065;BME280;20339;49.754;20.158;2024-02-28T12:12:01;96772.63;;;12.66;71.12
34065;BME280;20339;49.754;20.158;2024-02-28T12:14:38;96771.13;;;12.71;71.00
34065;BME280;20339;49.754;20.158;2024-02-28T12:17:11;96772.14;;;12.78;70.88
34065;BME280;20339;49.754;20.158;2024-02-28T12:19:49;96772.80;;;12.85;70.83
34065;BME280;20339;49.754;20.158;2024-02-28T12:22:21;96772.90;;;12.88;70.77
34065;BME280;20339;49.754;20.158;2024-02-28T12:24:52;96774.77;;;12.91;70.78
34065;BME280;20339;49.754;20.158;2024-02-28T12:27:29;96769.74;;;12.93;70.67
34065;BME280;20339;49.754;20.158;2024-02-28T12:30:06;96772.11;;;12.95;70.51
34065;BME280;20339;49.754;20.158;2024-02-28T12:32:51;96773.48;;;12.96;70.36
34065;BME280;20339;49.754;20.158;2024-02-28T12:35:23;96776.34;;;12.97;70.37
34065;BME280;20339;49.754;20.158;2024-02-28T12:37:57;96774.84;;;12.97;70.33
34065;BME280;20339;49.754;20.158;2024-02-28T12:40:31;96774.17;;;12.97;70.32
34065;BME280;20339;49.754;20.158;2024-02-28T12:43:05;96772.10;;;12.96;70.34
34065;BME280;20339;49.754;20.158;2024-02-28T12:45:37;96776.41;;;12.97;70.19
34065;BME280;20339;49.754;20.158;2024-02-28T12:48:13;96773.97;;;12.99;70.10
34065;BME280;20339;49.754;20.158;2024-02-28T12:50:48;96772.87;;;13.01;70.15
34065;BME280;20339;49.754;20.158;2024-02-28T12:53:25;96776.31;;;13.02;69.95
34065;BME280;20339;49.754;20.158;2024-02-28T12:55:56;96776.99;;;13.03;69.87
34065;BME280;20339;49.754;20.158;2024-02-28T12:58:27;96775.33;;;13.04;69.91
34065;BME280;20339;49.754;20.158;2024-02-28T13:01:07;96775.09;;;13.03;69.69
34065;BME280;20339;49.754;20.158;2024-02-28T13:03:42;96773.80;;;13.03;69.76
34065;BME280;20339;49.754;20.158;2024-02-28T13:06:23;96774.45;;;13.05;69.74
34065;BME280;20339;49.754;20.158;2024-02-28T13:09:01;96772.98;;;13.04;69.62
34065;BME280;20339;49.754;20.158;2024-02-28T13:11:35;96773.88;;;13.04;69.78
34065;BME280;20339;49.754;20.158;2024-02-28T13:14:09;96771.89;;;13.03;69.82
34065;BME280;20339;49.754;20.158;2024-02-28T13:16:48;96773.60;;;13.02;69.83
34065;BME280;20339;49.754;20.158;2024-02-28T13:19:30;96775.52;;;13.02;69.89
34065;BME280;20339;49.754;20.158;2024-02-28T13:22:04;96776.34;;;13.01;69.72
34065;BME280;20339;49.754;20.158;2024-02-28T13:24:38;96775.36;;;12.98;69.70
34065;BME280;20339;49.754;20.158;2024-02-28T13:27:15;96777.63;;;13.00;69.66
34065;BME280;20339;49.754;20.158;2024-02-28T13:29:52;96775.88;;;12.99;69.45
34065;BME280;20339;49.754;20.158;2024-02-28T13:32:23;96776.58;;;13.00;69.40